Terminal Aerodrome Forecast
Issued by NWS

Home | Current Version | Previous Version | Text Only | Print | Product List | Glossary On
Versions: 1 2 3 4 5 6 7 8 9 10 11 12 13 14 15
889
FTUS44 KJAN 111138 AAB
TAFHKS
TAF AMD
KHKS 111138Z 1112/1212 16015G25KT P6SM BKN050
     FM120500 17011G17KT P6SM OVC030
     FM120600 17010G17KT P6SM OVC015=

USA.gov is the U.S. government's official web portal to all federal, state and local government web resources and services.